Date,TemperatureHighF,TemperatureAvgF,TemperatureLowF,DewpointHighF,DewpointAvgF,DewpointLowF,HumidityHigh,HumidityAvg,HumidityLow,PressureMaxIn,PressureMinIn,WindSpeedMaxMPH,WindSpeedAvgMPH,GustSpeedMaxMPH,PrecipitationSumIn
2013-1-1,13,2,-6,0,-7,-12,76,66,45,0.00,40.00,8,3,16,0.00
2013-1-2,15,5,-4,-1,-4,-12,78,67,42,0.00,40.00,10,4,21,0.00
2013-1-3,22,2,-10,-3,-11,-17,73,57,23,0.00,40.00,5,2,10,0.03
2013-1-4,32,13,-1,2,-3,-11,71,50,27,0.00,40.00,7,2,12,0.02
2013-1-5,30,13,2,1,-4,-8,73,49,23,0.00,40.00,7,3,13,0.02
2013-1-6,39,20,5,1,-6,-12,58,34,12,0.00,40.00,4,2,7,0.00
2013-1-7,40,21,9,1,-4,-10,54,35,14,0.00,40.00,7,2,13,0.00
2013-1-8,32,18,9,14,3,-10,83,54,34,0.00,40.00,8,3,16,0.00
2013-1-9,49,24,8,16,7,0,82,56,13,0.00,40.00,7,2,10,0.01
2013-1-10,41,26,18,7,3,-4,53,37,14,0.00,40.00,7,3,18,0.01
2013-1-11,26,13,0,13,-1,-16,85,57,24,0.00,40.00,10,6,29,0.00
2013-1-12,8,-3,-13,-10,-15,-21,73,58,29,0.00,40.00,7,3,13,0.00
2013-1-13,8,-5,-14,-10,-17,-22,69,55,26,0.00,40.00,5,2,12,0.00
2013-1-14,8,-8,-16,-12,-19,-24,68,60,34,0.00,40.00,8,2,14,0.00
2013-1-15,3,-6,-18,-3,-14,-26,77,66,52,0.00,40.00,6,2,10,0.00
2013-1-16,28,14,2,13,6,-3,84,71,51,0.00,40.00,8,2,13,0.07
2013-1-17,35,17,6,18,6,1,85,65,29,0.00,40.00,6,2,12,0.01
2013-1-18,39,21,9,3,0,-3,69,44,18,0.00,40.00,7,3,15,0.00
2013-1-19,39,22,12,3,0,-3,52,39,19,0.00,40.00,8,3,17,0.00
2013-1-20,36,22,12,1,-2,-5,56,36,17,0.00,40.00,8,4,14,0.00
2013-1-21,35,21,8,4,0,-5,58,41,22,0.00,40.00,8,4,14,0.00
2013-1-22,44,26,13,1,-7,-15,45,27,8,0.00,40.00,9,4,19,0.00
2013-1-23,54,31,16,11,-3,-12,43,27,6,0.00,40.00,7,3,14,0.00
2013-1-24,44,32,25,27,12,-4,92,48,17,0.00,40.00,9,5,22,0.00
2013-1-25,40,32,27,28,25,23,89,76,55,0.00,40.00,6,4,15,0.04
2013-1-26,42,33,25,29,24,18,96,72,40,0.00,40.00,9,3,17,0.01
2013-1-27,43,31,18,28,19,8,96,65,30,0.00,40.00,7,3,18,0.08
2013-1-28,29,21,9,20,13,3,88,70,41,0.00,40.00,7,4,24,0.01
2013-1-29,15,6,0,3,-4,-9,81,67,36,0.00,40.00,11,5,23,0.00
2013-1-30,16,8,-1,8,1,-7,79,71,60,0.00,40.00,10,6,22,0.00
2013-1-31,27,20,15,14,11,8,86,68,50,0.00,40.00,10,5,27,0.08